< < Back
Terminal Aerodrome Forecast


Current Version              Previous Versions:   1  2  3  4  5  6  7  8  9  

Terminal Aerodrome Forecast

959
FTUS42 KJAX 271120
TAFGNV
TAF
KGNV 271120Z 2712/2812 00000KT 6SM BR SCT015 SCT100 BKN200
     FM271400 02006KT P6SM SCT040 SCT080
     FM271900 05008KT P6SM VCTS SCT040CB BKN080
     FM280000 VRB02KT P6SM FEW050 SCT100 SCT250=

Latest METAR

294
SAUS70 KWBC 271600 RRF
MTRGNV
METAR KGNV 271553Z VRB03KT 10SM FEW090 31/21 A3008 RMK AO2 SLP184
T03110206


USA.gov is the U.S. government's official web portal to all federal, state and local government web resources and services.